Alpaugh, California
Current Conditions -  °F | °C
As of 12:55 PM on Tuesday 21 Oct 2014 (Local Time) from KPTV Reporting Station
Clear Clear  
Wind Chill: 66°   Ceiling: Unl
Heat Index: 66°   Visibility: 10mi
Dew Point: 48°   Wind: 8mph
Humidity: 52%   Direction: 180°S
Pressure: 30.04"   Gusts: NA
Location:  35.89°N, 119.49°W
Report Text: KPTV 211955Z 18007KT 10SM CLR 19/09 A3004 RMK AO1
Loading
Personal Weather Stations






























Interactive Weather Map New forecast layout! Learn more

10-Day Weather Forecast

Advertisements
Track Severe Weather on mobile